Chamita, New Mexico
Current Conditions -  °F | °C
As of 10:15 PM on Thursday 30 Oct 2014 (Local Time) from KLAM Reporting Station
Clear Clear  
Wind Chill: 51°   Ceiling: Unl
Heat Index: 51°   Visibility: 10mi
Dew Point: 20°   Wind: 10mph
Humidity: 30%   Direction: 210°SSW
Pressure: 30.44"   Gusts: NA
Location:  36.054°N, 106.072°W
Report Text: KLAM 310415Z AUTO 21009KT 10SM CLR 11/M07 A3044 RMK AO2 T01061066
Loading
Personal Weather Stations






























Interactive Weather Map
Tropical Storm Tracking
New forecast layout! Learn more

10-Day Weather Forecast

Advertisements
Track Severe Weather on mobile